sensor_id;sensor_type;location;lat;lon;timestamp;P1;durP1;ratioP1;P2;durP2;ratioP2
4244;SDS011;2136;48.502;9.194;2023-02-11T00:01:17;35.05;;;18.95;;
4244;SDS011;2136;48.502;9.194;2023-02-11T00:03:46;36.25;;;19.20;;
4244;SDS011;2136;48.502;9.194;2023-02-11T00:06:13;37.40;;;20.75;;
4244;SDS011;2136;48.502;9.194;2023-02-11T00:08:41;37.45;;;18.75;;
4244;SDS011;2136;48.502;9.194;2023-02-11T00:11:10;38.72;;;19.25;;
4244;SDS011;2136;48.502;9.194;2023-02-11T00:13:38;37.70;;;20.95;;
4244;SDS011;2136;48.502;9.194;2023-02-11T00:16:06;42.90;;;20.90;;
4244;SDS011;2136;48.502;9.194;2023-02-11T00:18:34;46.65;;;21.48;;
4244;SDS011;2136;48.502;9.194;2023-02-11T00:21:04;43.05;;;21.83;;
4244;SDS011;2136;48.502;9.194;2023-02-11T00:23:32;46.60;;;23.60;;
4244;SDS011;2136;48.502;9.194;2023-02-11T00:26:00;43.88;;;21.67;;
4244;SDS011;2136;48.502;9.194;2023-02-11T00:28:28;36.38;;;19.80;;
4244;SDS011;2136;48.502;9.194;2023-02-11T00:30:55;41.10;;;22.27;;
4244;SDS011;2136;48.502;9.194;2023-02-11T00:33:22;45.17;;;23.02;;
4244;SDS011;2136;48.502;9.194;2023-02-11T00:35:50;45.63;;;22.50;;
4244;SDS011;2136;48.502;9.194;2023-02-11T00:38:16;38.42;;;22.42;;
4244;SDS011;2136;48.502;9.194;2023-02-11T00:40:43;46.42;;;23.15;;
4244;SDS011;2136;48.502;9.194;2023-02-11T00:43:11;42.33;;;22.20;;
4244;SDS011;2136;48.502;9.194;2023-02-11T00:45:38;37.92;;;21.48;;
4244;SDS011;2136;48.502;9.194;2023-02-11T00:48:05;44.50;;;22.27;;
4244;SDS011;2136;48.502;9.194;2023-02-11T00:50:32;65.55;;;29.63;;
4244;SDS011;2136;48.502;9.194;2023-02-11T00:52:59;61.78;;;27.80;;
4244;SDS011;2136;48.502;9.194;2023-02-11T00:55:25;45.33;;;24.63;;
4244;SDS011;2136;48.502;9.194;2023-02-11T00:57:52;49.42;;;22.58;;
4244;SDS011;2136;48.502;9.194;2023-02-11T01:00:20;53.60;;;24.80;;
4244;SDS011;2136;48.502;9.194;2023-02-11T01:02:47;58.22;;;25.55;;
4244;SDS011;2136;48.502;9.194;2023-02-11T01:05:14;59.45;;;27.42;;
4244;SDS011;2136;48.502;9.194;2023-02-11T01:07:41;46.35;;;25.20;;
4244;SDS011;2136;48.502;9.194;2023-02-11T01:10:08;49.10;;;25.50;;
4244;SDS011;2136;48.502;9.194;2023-02-11T01:12:35;49.15;;;22.55;;
4244;SDS011;2136;48.502;9.194;2023-02-11T01:15:02;45.78;;;24.20;;
4244;SDS011;2136;48.502;9.194;2023-02-11T01:17:31;44.42;;;23.58;;
4244;SDS011;2136;48.502;9.194;2023-02-11T01:19:58;42.75;;;22.10;;
4244;SDS011;2136;48.502;9.194;2023-02-11T01:22:27;47.13;;;23.20;;
4244;SDS011;2136;48.502;9.194;2023-02-11T01:24:53;45.88;;;21.30;;
4244;SDS011;2136;48.502;9.194;2023-02-11T01:27:20;38.45;;;20.58;;
4244;SDS011;2136;48.502;9.194;2023-02-11T01:29:47;42.67;;;21.42;;
4244;SDS011;2136;48.502;9.194;2023-02-11T01:32:14;45.25;;;20.85;;
4244;SDS011;2136;48.502;9.194;2023-02-11T01:34:42;46.05;;;20.27;;
4244;SDS011;2136;48.502;9.194;2023-02-11T01:37:09;41.30;;;20.15;;
4244;SDS011;2136;48.502;9.194;2023-02-11T01:39:36;38.03;;;20.88;;
4244;SDS011;2136;48.502;9.194;2023-02-11T01:42:02;38.08;;;20.10;;
4244;SDS011;2136;48.502;9.194;2023-02-11T01:44:31;55.10;;;21.63;;
4244;SDS011;2136;48.502;9.194;2023-02-11T01:46:59;48.10;;;21.23;;
4244;SDS011;2136;48.502;9.194;2023-02-11T01:49:29;37.33;;;17.98;;
4244;SDS011;2136;48.502;9.194;2023-02-11T01:52:00;39.80;;;18.05;;
4244;SDS011;2136;48.502;9.194;2023-02-11T01:54:31;34.45;;;18.17;;
4244;SDS011;2136;48.502;9.194;2023-02-11T01:57:20;41.70;;;18.38;;
4244;SDS011;2136;48.502;9.194;2023-02-11T01:59:53;34.67;;;18.15;;
4244;SDS011;2136;48.502;9.194;2023-02-11T02:02:28;38.22;;;19.15;;
4244;SDS011;2136;48.502;9.194;2023-02-11T02:05:02;37.47;;;18.85;;
4244;SDS011;2136;48.502;9.194;2023-02-11T02:07:35;38.13;;;18.92;;
4244;SDS011;2136;48.502;9.194;2023-02-11T02:10:09;41.50;;;19.80;;
4244;SDS011;2136;48.502;9.194;2023-02-11T02:12:42;35.75;;;18.58;;
4244;SDS011;2136;48.502;9.194;2023-02-11T02:15:22;34.78;;;18.77;;
4244;SDS011;2136;48.502;9.194;2023-02-11T02:17:56;41.35;;;20.98;;
4244;SDS011;2136;48.502;9.194;2023-02-11T02:20:36;45.08;;;21.10;;
4244;SDS011;2136;48.502;9.194;2023-02-11T02:23:26;42.83;;;23.75;;
4244;SDS011;2136;48.502;9.194;2023-02-11T02:29:13;41.90;;;19.50;;
4244;SDS011;2136;48.502;9.194;2023-02-11T02:32:11;44.65;;;21.23;;
4244;SDS011;2136;48.502;9.194;2023-02-11T02:34:52;44.00;;;20.15;;
4244;SDS011;2136;48.502;9.194;2023-02-11T02:37:28;40.08;;;20.42;;
4244;SDS011;2136;48.502;9.194;2023-02-11T02:40:00;44.45;;;21.40;;
4244;SDS011;2136;48.502;9.194;2023-02-11T02:42:31;42.05;;;20.90;;
4244;SDS011;2136;48.502;9.194;2023-02-11T02:44:59;43.28;;;21.10;;
4244;SDS011;2136;48.502;9.194;2023-02-11T02:47:27;36.65;;;20.75;;
4244;SDS011;2136;48.502;9.194;2023-02-11T02:49:54;48.83;;;21.67;;
4244;SDS011;2136;48.502;9.194;2023-02-11T02:52:24;39.60;;;21.90;;
4244;SDS011;2136;48.502;9.194;2023-02-11T02:55:08;46.17;;;23.02;;
4244;SDS011;2136;48.502;9.194;2023-02-11T02:57:48;37.60;;;20.90;;
4244;SDS011;2136;48.502;9.194;2023-02-11T03:00:37;38.05;;;20.63;;
4244;SDS011;2136;48.502;9.194;2023-02-11T03:03:20;43.47;;;22.70;;
4244;SDS011;2136;48.502;9.194;2023-02-11T03:05:55;41.20;;;20.55;;
4244;SDS011;2136;48.502;9.194;2023-02-11T03:08:28;41.83;;;21.10;;
4244;SDS011;2136;48.502;9.194;2023-02-11T03:10:58;46.67;;;22.40;;
4244;SDS011;2136;48.502;9.194;2023-02-11T03:13:29;45.00;;;20.38;;
4244;SDS011;2136;48.502;9.194;2023-02-11T03:15:59;43.53;;;23.30;;
4244;SDS011;2136;48.502;9.194;2023-02-11T03:18:34;42.78;;;22.00;;
4244;SDS011;2136;48.502;9.194;2023-02-11T03:21:02;35.83;;;19.45;;
4244;SDS011;2136;48.502;9.194;2023-02-11T03:23:34;39.60;;;20.00;;
4244;SDS011;2136;48.502;9.194;2023-02-11T03:26:06;41.10;;;19.38;;
4244;SDS011;2136;48.502;9.194;2023-02-11T03:28:41;42.58;;;21.33;;
4244;SDS011;2136;48.502;9.194;2023-02-11T03:31:13;41.55;;;21.25;;
4244;SDS011;2136;48.502;9.194;2023-02-11T03:33:48;36.58;;;18.17;;
4244;SDS011;2136;48.502;9.194;2023-02-11T03:36:21;39.13;;;19.65;;
4244;SDS011;2136;48.502;9.194;2023-02-11T03:38:52;42.45;;;19.35;;
4244;SDS011;2136;48.502;9.194;2023-02-11T03:41:23;40.20;;;20.02;;
4244;SDS011;2136;48.502;9.194;2023-02-11T03:43:52;40.28;;;20.60;;
4244;SDS011;2136;48.502;9.194;2023-02-11T03:46:23;40.60;;;22.08;;
4244;SDS011;2136;48.502;9.194;2023-02-11T03:48:55;35.72;;;20.38;;
4244;SDS011;2136;48.502;9.194;2023-02-11T03:51:27;38.13;;;20.48;;
4244;SDS011;2136;48.502;9.194;2023-02-11T03:53:56;48.72;;;22.75;;
4244;SDS011;2136;48.502;9.194;2023-02-11T03:56:26;40.83;;;19.58;;
4244;SDS011;2136;48.502;9.194;2023-02-11T03:58:57;40.50;;;20.60;;
4244;SDS011;2136;48.502;9.194;2023-02-11T04:01:23;48.53;;;21.48;;
4244;SDS011;2136;48.502;9.194;2023-02-11T04:03:50;35.70;;;20.60;;
4244;SDS011;2136;48.502;9.194;2023-02-11T04:06:18;35.53;;;18.92;;
4244;SDS011;2136;48.502;9.194;2023-02-11T04:08:45;45.72;;;20.95;;
4244;SDS011;2136;48.502;9.194;2023-02-11T04:11:12;38.53;;;21.10;;
4244;SDS011;2136;48.502;9.194;2023-02-11T04:13:39;45.25;;;21.42;;
4244;SDS011;2136;48.502;9.194;2023-02-11T04:16:06;46.53;;;21.65;;
4244;SDS011;2136;48.502;9.194;2023-02-11T04:18:33;43.53;;;20.70;;
4244;SDS011;2136;48.502;9.194;2023-02-11T04:20:59;48.47;;;19.40;;
4244;SDS011;2136;48.502;9.194;2023-02-11T04:23:28;38.70;;;20.90;;
4244;SDS011;2136;48.502;9.194;2023-02-11T04:25:54;40.72;;;20.35;;
4244;SDS011;2136;48.502;9.194;2023-02-11T04:28:21;31.38;;;19.17;;
4244;SDS011;2136;48.502;9.194;2023-02-11T04:30:48;39.33;;;20.25;;
4244;SDS011;2136;48.502;9.194;2023-02-11T04:33:15;37.58;;;19.88;;
4244;SDS011;2136;48.502;9.194;2023-02-11T04:35:42;41.05;;;19.73;;
4244;SDS011;2136;48.502;9.194;2023-02-11T04:38:10;41.90;;;21.70;;
4244;SDS011;2136;48.502;9.194;2023-02-11T04:40:38;34.63;;;20.42;;
4244;SDS011;2136;48.502;9.194;2023-02-11T04:43:05;37.80;;;20.08;;
4244;SDS011;2136;48.502;9.194;2023-02-11T04:45:32;40.38;;;18.45;;
4244;SDS011;2136;48.502;9.194;2023-02-11T04:48:00;46.17;;;20.02;;
4244;SDS011;2136;48.502;9.194;2023-02-11T04:50:27;43.63;;;20.63;;
4244;SDS011;2136;48.502;9.194;2023-02-11T04:52:54;35.53;;;17.95;;
4244;SDS011;2136;48.502;9.194;2023-02-11T04:55:20;35.80;;;19.23;;
4244;SDS011;2136;48.502;9.194;2023-02-11T04:57:49;40.03;;;18.77;;
4244;SDS011;2136;48.502;9.194;2023-02-11T05:00:16;35.63;;;18.92;;
4244;SDS011;2136;48.502;9.194;2023-02-11T05:02:43;37.53;;;19.92;;
4244;SDS011;2136;48.502;9.194;2023-02-11T05:05:09;37.58;;;18.63;;
4244;SDS011;2136;48.502;9.194;2023-02-11T05:07:36;34.55;;;19.45;;
4244;SDS011;2136;48.502;9.194;2023-02-11T05:10:03;35.28;;;19.98;;
4244;SDS011;2136;48.502;9.194;2023-02-11T05:12:30;38.17;;;18.95;;
4244;SDS011;2136;48.502;9.194;2023-02-11T05:14:58;42.45;;;21.10;;
4244;SDS011;2136;48.502;9.194;2023-02-11T05:17:25;37.78;;;19.67;;
4244;SDS011;2136;48.502;9.194;2023-02-11T05:19:52;40.35;;;21.27;;
4244;SDS011;2136;48.502;9.194;2023-02-11T05:22:19;47.03;;;21.83;;
4244;SDS011;2136;48.502;9.194;2023-02-11T05:24:46;41.03;;;21.75;;
4244;SDS011;2136;48.502;9.194;2023-02-11T05:27:13;37.10;;;21.02;;
4244;SDS011;2136;48.502;9.194;2023-02-11T05:29:39;36.45;;;20.10;;
4244;SDS011;2136;48.502;9.194;2023-02-11T05:32:07;43.03;;;20.27;;
4244;SDS011;2136;48.502;9.194;2023-02-11T05:34:34;39.95;;;21.20;;
4244;SDS011;2136;48.502;9.194;2023-02-11T05:37:01;38.38;;;20.02;;
4244;SDS011;2136;48.502;9.194;2023-02-11T05:39:28;44.00;;;19.42;;
4244;SDS011;2136;48.502;9.194;2023-02-11T05:41:55;39.08;;;20.08;;
4244;SDS011;2136;48.502;9.194;2023-02-11T05:44:22;41.80;;;20.17;;
4244;SDS011;2136;48.502;9.194;2023-02-11T05:46:49;40.22;;;19.92;;
4244;SDS011;2136;48.502;9.194;2023-02-11T05:49:17;42.83;;;20.20;;
4244;SDS011;2136;48.502;9.194;2023-02-11T05:51:44;36.10;;;18.88;;
4244;SDS011;2136;48.502;9.194;2023-02-11T05:54:11;33.28;;;19.77;;
4244;SDS011;2136;48.502;9.194;2023-02-11T05:56:38;33.75;;;18.83;;
4244;SDS011;2136;48.502;9.194;2023-02-11T05:59:05;39.03;;;20.75;;
4244;SDS011;2136;48.502;9.194;2023-02-11T06:01:31;40.58;;;19.80;;
4244;SDS011;2136;48.502;9.194;2023-02-11T06:03:58;35.55;;;20.10;;
4244;SDS011;2136;48.502;9.194;2023-02-11T06:06:26;32.72;;;18.92;;
4244;SDS011;2136;48.502;9.194;2023-02-11T06:08:53;37.28;;;19.40;;
4244;SDS011;2136;48.502;9.194;2023-02-11T06:11:20;53.20;;;19.35;;
4244;SDS011;2136;48.502;9.194;2023-02-11T06:13:47;35.15;;;17.75;;
4244;SDS011;2136;48.502;9.194;2023-02-11T06:16:14;38.75;;;20.45;;
4244;SDS011;2136;48.502;9.194;2023-02-11T06:18:40;33.97;;;19.92;;
4244;SDS011;2136;48.502;9.194;2023-02-11T06:21:07;33.45;;;18.52;;
4244;SDS011;2136;48.502;9.194;2023-02-11T06:23:37;41.60;;;21.42;;
4244;SDS011;2136;48.502;9.194;2023-02-11T06:26:05;36.10;;;18.90;;
4244;SDS011;2136;48.502;9.194;2023-02-11T06:28:33;29.52;;;18.52;;
4244;SDS011;2136;48.502;9.194;2023-02-11T06:31:03;37.80;;;18.98;;
4244;SDS011;2136;48.502;9.194;2023-02-11T06:33:31;45.25;;;19.33;;
4244;SDS011;2136;48.502;9.194;2023-02-11T06:35:58;39.22;;;19.35;;
4244;SDS011;2136;48.502;9.194;2023-02-11T06:38:25;37.47;;;19.05;;
4244;SDS011;2136;48.502;9.194;2023-02-11T06:40:53;34.00;;;19.35;;
4244;SDS011;2136;48.502;9.194;2023-02-11T06:43:20;41.20;;;20.67;;
4244;SDS011;2136;48.502;9.194;2023-02-11T06:45:51;36.03;;;19.55;;
4244;SDS011;2136;48.502;9.194;2023-02-11T06:48:19;39.40;;;19.70;;
4244;SDS011;2136;48.502;9.194;2023-02-11T06:50:46;39.88;;;18.13;;
4244;SDS011;2136;48.502;9.194;2023-02-11T06:53:13;38.10;;;19.52;;
4244;SDS011;2136;48.502;9.194;2023-02-11T06:55:39;38.92;;;18.45;;
4244;SDS011;2136;48.502;9.194;2023-02-11T06:58:08;44.50;;;22.00;;
4244;SDS011;2136;48.502;9.194;2023-02-11T07:00:35;36.40;;;20.10;;
4244;SDS011;2136;48.502;9.194;2023-02-11T07:03:02;37.30;;;20.75;;
4244;SDS011;2136;48.502;9.194;2023-02-11T07:05:29;53.28;;;23.23;;
4244;SDS011;2136;48.502;9.194;2023-02-11T07:07:58;44.53;;;22.63;;
4244;SDS011;2136;48.502;9.194;2023-02-11T07:10:25;42.80;;;23.25;;
4244;SDS011;2136;48.502;9.194;2023-02-11T07:12:51;39.88;;;21.95;;
4244;SDS011;2136;48.502;9.194;2023-02-11T07:15:20;37.38;;;20.98;;
4244;SDS011;2136;48.502;9.194;2023-02-11T07:17:46;53.17;;;26.05;;
4244;SDS011;2136;48.502;9.194;2023-02-11T07:20:13;44.22;;;23.65;;
4244;SDS011;2136;48.502;9.194;2023-02-11T07:22:40;41.50;;;23.08;;
4244;SDS011;2136;48.502;9.194;2023-02-11T07:25:07;44.42;;;24.17;;
4244;SDS011;2136;48.502;9.194;2023-02-11T07:27:34;51.08;;;27.48;;
4244;SDS011;2136;48.502;9.194;2023-02-11T07:30:00;44.40;;;22.98;;
4244;SDS011;2136;48.502;9.194;2023-02-11T07:32:29;45.40;;;22.58;;
4244;SDS011;2136;48.502;9.194;2023-02-11T07:34:56;49.95;;;24.08;;
4244;SDS011;2136;48.502;9.194;2023-02-11T07:37:22;42.95;;;22.67;;
4244;SDS011;2136;48.502;9.194;2023-02-11T07:39:49;43.50;;;22.65;;
4244;SDS011;2136;48.502;9.194;2023-02-11T07:42:16;40.40;;;23.70;;
4244;SDS011;2136;48.502;9.194;2023-02-11T07:44:43;45.97;;;26.13;;
4244;SDS011;2136;48.502;9.194;2023-02-11T07:47:11;38.47;;;22.70;;
4244;SDS011;2136;48.502;9.194;2023-02-11T07:49:39;43.92;;;25.25;;
4244;SDS011;2136;48.502;9.194;2023-02-11T07:52:06;40.65;;;21.83;;
4244;SDS011;2136;48.502;9.194;2023-02-11T07:54:32;38.33;;;22.58;;
4244;SDS011;2136;48.502;9.194;2023-02-11T07:56:59;45.30;;;22.88;;
4244;SDS011;2136;48.502;9.194;2023-02-11T07:59:26;44.80;;;24.65;;
4244;SDS011;2136;48.502;9.194;2023-02-11T08:01:53;43.58;;;23.23;;
4244;SDS011;2136;48.502;9.194;2023-02-11T08:04:20;49.33;;;24.35;;
4244;SDS011;2136;48.502;9.194;2023-02-11T08:06:48;40.92;;;23.30;;
4244;SDS011;2136;48.502;9.194;2023-02-11T08:09:17;39.72;;;20.40;;
4244;SDS011;2136;48.502;9.194;2023-02-11T08:11:44;37.92;;;20.98;;
4244;SDS011;2136;48.502;9.194;2023-02-11T08:14:11;50.33;;;22.88;;
4244;SDS011;2136;48.502;9.194;2023-02-11T08:16:38;44.38;;;21.13;;
4244;SDS011;2136;48.502;9.194;2023-02-11T08:19:06;40.15;;;20.25;;
4244;SDS011;2136;48.502;9.194;2023-02-11T08:21:35;39.13;;;20.30;;
4244;SDS011;2136;48.502;9.194;2023-02-11T08:24:05;35.57;;;19.00;;
4244;SDS011;2136;48.502;9.194;2023-02-11T08:26:32;36.20;;;19.43;;
4244;SDS011;2136;48.502;9.194;2023-02-11T08:29:00;68.93;;;29.10;;
4244;SDS011;2136;48.502;9.194;2023-02-11T08:31:28;39.53;;;22.20;;
4244;SDS011;2136;48.502;9.194;2023-02-11T08:33:58;36.50;;;18.30;;
4244;SDS011;2136;48.502;9.194;2023-02-11T08:36:27;34.13;;;19.63;;
4244;SDS011;2136;48.502;9.194;2023-02-11T08:38:55;34.23;;;18.03;;
4244;SDS011;2136;48.502;9.194;2023-02-11T08:41:24;33.33;;;19.33;;
4244;SDS011;2136;48.502;9.194;2023-02-11T08:43:52;32.33;;;17.60;;
4244;SDS011;2136;48.502;9.194;2023-02-11T08:46:19;32.30;;;17.70;;
4244;SDS011;2136;48.502;9.194;2023-02-11T08:48:46;32.20;;;16.77;;
4244;SDS011;2136;48.502;9.194;2023-02-11T08:51:14;160.67;;;66.80;;
4244;SDS011;2136;48.502;9.194;2023-02-11T08:53:42;51.87;;;22.90;;
4244;SDS011;2136;48.502;9.194;2023-02-11T08:56:10;56.10;;;29.53;;
4244;SDS011;2136;48.502;9.194;2023-02-11T08:58:39;35.00;;;18.03;;
4244;SDS011;2136;48.502;9.194;2023-02-11T09:01:08;24.80;;;16.07;;
4244;SDS011;2136;48.502;9.194;2023-02-11T09:03:35;25.90;;;16.07;;
4244;SDS011;2136;48.502;9.194;2023-02-11T09:06:03;27.80;;;17.27;;
4244;SDS011;2136;48.502;9.194;2023-02-11T09:08:32;30.40;;;17.63;;
4244;SDS011;2136;48.502;9.194;2023-02-11T09:10:59;25.30;;;14.30;;
4244;SDS011;2136;48.502;9.194;2023-02-11T09:13:27;28.10;;;17.27;;
4244;SDS011;2136;48.502;9.194;2023-02-11T09:15:56;34.10;;;18.23;;
4244;SDS011;2136;48.502;9.194;2023-02-11T09:18:23;35.53;;;18.50;;
4244;SDS011;2136;48.502;9.194;2023-02-11T09:20:50;38.70;;;20.70;;
4244;SDS011;2136;48.502;9.194;2023-02-11T09:23:16;34.30;;;18.40;;
4244;SDS011;2136;48.502;9.194;2023-02-11T09:25:43;29.20;;;18.33;;
4244;SDS011;2136;48.502;9.194;2023-02-11T09:28:10;35.73;;;18.30;;
4244;SDS011;2136;48.502;9.194;2023-02-11T09:30:37;29.03;;;16.40;;
4244;SDS011;2136;48.502;9.194;2023-02-11T09:33:05;44.13;;;19.33;;
4244;SDS011;2136;48.502;9.194;2023-02-11T09:35:32;28.67;;;16.70;;
4244;SDS011;2136;48.502;9.194;2023-02-11T09:37:59;27.13;;;16.10;;
4244;SDS011;2136;48.502;9.194;2023-02-11T09:40:26;28.23;;;17.53;;
4244;SDS011;2136;48.502;9.194;2023-02-11T09:42:55;28.90;;;17.23;;
4244;SDS011;2136;48.502;9.194;2023-02-11T09:45:28;27.00;;;14.93;;
4244;SDS011;2136;48.502;9.194;2023-02-11T09:47:56;24.03;;;14.13;;
4244;SDS011;2136;48.502;9.194;2023-02-11T09:50:27;20.57;;;13.50;;
4244;SDS011;2136;48.502;9.194;2023-02-11T09:52:57;23.15;;;13.70;;
4244;SDS011;2136;48.502;9.194;2023-02-11T09:55:27;19.63;;;13.40;;
4244;SDS011;2136;48.502;9.194;2023-02-11T09:58:15;22.87;;;13.77;;
4244;SDS011;2136;48.502;9.194;2023-02-11T10:00:46;22.30;;;12.83;;
4244;SDS011;2136;48.502;9.194;2023-02-11T10:03:23;22.53;;;13.50;;
4244;SDS011;2136;48.502;9.194;2023-02-11T10:06:16;22.90;;;14.27;;
4244;SDS011;2136;48.502;9.194;2023-02-11T10:08:58;26.70;;;13.60;;
4244;SDS011;2136;48.502;9.194;2023-02-11T10:11:35;24.93;;;14.10;;
4244;SDS011;2136;48.502;9.194;2023-02-11T10:14:17;26.77;;;16.50;;
4244;SDS011;2136;48.502;9.194;2023-02-11T10:16:56;25.40;;;16.40;;
4244;SDS011;2136;48.502;9.194;2023-02-11T10:19:38;23.10;;;16.13;;
4244;SDS011;2136;48.502;9.194;2023-02-11T10:22:19;26.90;;;17.53;;
4244;SDS011;2136;48.502;9.194;2023-02-11T10:24:54;34.47;;;17.60;;
4244;SDS011;2136;48.502;9.194;2023-02-11T10:27:32;27.03;;;16.30;;
4244;SDS011;2136;48.502;9.194;2023-02-11T10:30:00;23.37;;;14.10;;
4244;SDS011;2136;48.502;9.194;2023-02-11T10:32:32;23.10;;;14.77;;
4244;SDS011;2136;48.502;9.194;2023-02-11T10:35:09;23.87;;;15.20;;
4244;SDS011;2136;48.502;9.194;2023-02-11T10:37:41;22.83;;;15.30;;
4244;SDS011;2136;48.502;9.194;2023-02-11T10:40:11;23.53;;;14.30;;
4244;SDS011;2136;48.502;9.194;2023-02-11T10:42:39;26.43;;;15.07;;
4244;SDS011;2136;48.502;9.194;2023-02-11T10:45:09;19.23;;;12.10;;
4244;SDS011;2136;48.502;9.194;2023-02-11T10:47:44;22.50;;;12.33;;
4244;SDS011;2136;48.502;9.194;2023-02-11T10:50:18;26.43;;;15.27;;
4244;SDS011;2136;48.502;9.194;2023-02-11T10:52:48;21.23;;;13.90;;
4244;SDS011;2136;48.502;9.194;2023-02-11T10:55:15;23.98;;;14.90;;
4244;SDS011;2136;48.502;9.194;2023-02-11T10:57:49;25.67;;;16.27;;
4244;SDS011;2136;48.502;9.194;2023-02-11T11:00:22;25.30;;;14.83;;
4244;SDS011;2136;48.502;9.194;2023-02-11T11:02:58;29.73;;;17.60;;
4244;SDS011;2136;48.502;9.194;2023-02-11T11:05:28;26.37;;;17.20;;
4244;SDS011;2136;48.502;9.194;2023-02-11T11:07:58;26.60;;;16.43;;
4244;SDS011;2136;48.502;9.194;2023-02-11T11:10:28;21.13;;;15.13;;
4244;SDS011;2136;48.502;9.194;2023-02-11T11:13:00;22.03;;;13.80;;
4244;SDS011;2136;48.502;9.194;2023-02-11T11:15:28;28.10;;;17.23;;
4244;SDS011;2136;48.502;9.194;2023-02-11T11:18:08;23.53;;;15.23;;
4244;SDS011;2136;48.502;9.194;2023-02-11T11:20:37;24.77;;;16.00;;
4244;SDS011;2136;48.502;9.194;2023-02-11T11:23:09;20.70;;;14.20;;
4244;SDS011;2136;48.502;9.194;2023-02-11T11:25:42;22.43;;;15.10;;
4244;SDS011;2136;48.502;9.194;2023-02-11T11:28:18;21.77;;;15.07;;
4244;SDS011;2136;48.502;9.194;2023-02-11T11:30:48;20.13;;;13.73;;
4244;SDS011;2136;48.502;9.194;2023-02-11T11:33:18;23.13;;;15.30;;
4244;SDS011;2136;48.502;9.194;2023-02-11T11:35:58;18.80;;;13.90;;
4244;SDS011;2136;48.502;9.194;2023-02-11T11:38:29;14.50;;;11.30;;
4244;SDS011;2136;48.502;9.194;2023-02-11T11:41:16;15.87;;;12.87;;
4244;SDS011;2136;48.502;9.194;2023-02-11T11:43:58;18.07;;;12.43;;
4244;SDS011;2136;48.502;9.194;2023-02-11T11:46:28;16.57;;;12.30;;
4244;SDS011;2136;48.502;9.194;2023-02-11T11:51:48;16.80;;;12.77;;
4244;SDS011;2136;48.502;9.194;2023-02-11T11:54:21;15.50;;;11.47;;
4244;SDS011;2136;48.502;9.194;2023-02-11T11:56:50;15.73;;;12.03;;
4244;SDS011;2136;48.502;9.194;2023-02-11T11:59:23;20.00;;;12.67;;
4244;SDS011;2136;48.502;9.194;2023-02-11T12:01:54;15.47;;;12.30;;
4244;SDS011;2136;48.502;9.194;2023-02-11T12:04:50;17.07;;;12.80;;
4244;SDS011;2136;48.502;9.194;2023-02-11T12:07:29;24.90;;;13.00;;
4244;SDS011;2136;48.502;9.194;2023-02-11T12:10:18;17.33;;;12.80;;
4244;SDS011;2136;48.502;9.194;2023-02-11T12:12:59;13.70;;;10.83;;
4244;SDS011;2136;48.502;9.194;2023-02-11T12:15:35;17.90;;;12.80;;
4244;SDS011;2136;48.502;9.194;2023-02-11T12:18:16;21.87;;;11.63;;
4244;SDS011;2136;48.502;9.194;2023-02-11T12:21:10;20.70;;;13.87;;
4244;SDS011;2136;48.502;9.194;2023-02-11T12:24:05;17.73;;;10.87;;
4244;SDS011;2136;48.502;9.194;2023-02-11T12:26:46;17.83;;;12.60;;
4244;SDS011;2136;48.502;9.194;2023-02-11T12:29:22;15.10;;;10.90;;
4244;SDS011;2136;48.502;9.194;2023-02-11T12:32:03;15.87;;;11.00;;
4244;SDS011;2136;48.502;9.194;2023-02-11T12:35:00;18.13;;;11.37;;
4244;SDS011;2136;48.502;9.194;2023-02-11T12:37:50;19.30;;;10.90;;
4244;SDS011;2136;48.502;9.194;2023-02-11T12:40:37;16.67;;;10.67;;
4244;SDS011;2136;48.502;9.194;2023-02-11T12:43:14;19.50;;;10.40;;
4244;SDS011;2136;48.502;9.194;2023-02-11T12:45:56;15.50;;;10.90;;
4244;SDS011;2136;48.502;9.194;2023-02-11T12:48:38;16.57;;;9.60;;
4244;SDS011;2136;48.502;9.194;2023-02-11T12:54:50;14.13;;;9.37;;
4244;SDS011;2136;48.502;9.194;2023-02-11T12:57:47;12.60;;;9.20;;
4244;SDS011;2136;48.502;9.194;2023-02-11T13:00:25;14.37;;;9.47;;
4244;SDS011;2136;48.502;9.194;2023-02-11T13:03:09;18.10;;;8.53;;
4244;SDS011;2136;48.502;9.194;2023-02-11T13:06:02;11.83;;;8.90;;
4244;SDS011;2136;48.502;9.194;2023-02-11T13:08:37;14.60;;;9.23;;
4244;SDS011;2136;48.502;9.194;2023-02-11T13:11:59;11.90;;;7.63;;
4244;SDS011;2136;48.502;9.194;2023-02-11T13:15:02;12.63;;;8.70;;
4244;SDS011;2136;48.502;9.194;2023-02-11T13:21:00;11.30;;;7.10;;
4244;SDS011;2136;48.502;9.194;2023-02-11T13:23:43;13.70;;;8.80;;
4244;SDS011;2136;48.502;9.194;2023-02-11T13:26:17;12.80;;;8.20;;
4244;SDS011;2136;48.502;9.194;2023-02-11T13:28:50;14.90;;;7.53;;
4244;SDS011;2136;48.502;9.194;2023-02-11T13:31:21;14.77;;;7.90;;
4244;SDS011;2136;48.502;9.194;2023-02-11T13:33:52;8.93;;;6.33;;
4244;SDS011;2136;48.502;9.194;2023-02-11T13:36:23;9.83;;;5.77;;
4244;SDS011;2136;48.502;9.194;2023-02-11T13:38:52;7.63;;;6.20;;
4244;SDS011;2136;48.502;9.194;2023-02-11T13:44:24;6.87;;;5.07;;
4244;SDS011;2136;48.502;9.194;2023-02-11T13:46:53;9.17;;;5.40;;
4244;SDS011;2136;48.502;9.194;2023-02-11T13:49:26;15.30;;;5.57;;
4244;SDS011;2136;48.502;9.194;2023-02-11T13:51:57;9.43;;;4.80;;
4244;SDS011;2136;48.502;9.194;2023-02-11T13:54:27;7.63;;;4.40;;
4244;SDS011;2136;48.502;9.194;2023-02-11T13:59:57;10.10;;;5.13;;
4244;SDS011;2136;48.502;9.194;2023-02-11T14:02:27;10.23;;;5.17;;
4244;SDS011;2136;48.502;9.194;2023-02-11T14:05:22;7.40;;;5.47;;
4244;SDS011;2136;48.502;9.194;2023-02-11T14:08:13;8.73;;;4.90;;
4244;SDS011;2136;48.502;9.194;2023-02-11T14:11:05;8.00;;;5.67;;
4244;SDS011;2136;48.502;9.194;2023-02-11T14:14:02;9.37;;;5.90;;
4244;SDS011;2136;48.502;9.194;2023-02-11T14:19:43;7.90;;;5.40;;
4244;SDS011;2136;48.502;9.194;2023-02-11T14:22:13;7.77;;;5.13;;
4244;SDS011;2136;48.502;9.194;2023-02-11T14:24:47;7.50;;;5.80;;
4244;SDS011;2136;48.502;9.194;2023-02-11T14:27:25;5.50;;;4.63;;
4244;SDS011;2136;48.502;9.194;2023-02-11T14:33:08;7.23;;;5.73;;
4244;SDS011;2136;48.502;9.194;2023-02-11T14:35:53;8.20;;;5.23;;
4244;SDS011;2136;48.502;9.194;2023-02-11T14:38:33;12.20;;;7.40;;
4244;SDS011;2136;48.502;9.194;2023-02-11T14:41:09;9.00;;;6.00;;
4244;SDS011;2136;48.502;9.194;2023-02-11T14:43:43;5.87;;;4.80;;
4244;SDS011;2136;48.502;9.194;2023-02-11T14:46:14;6.87;;;5.73;;
4244;SDS011;2136;48.502;9.194;2023-02-11T14:48:43;8.90;;;5.67;;
4244;SDS011;2136;48.502;9.194;2023-02-11T14:51:12;6.33;;;5.10;;
4244;SDS011;2136;48.502;9.194;2023-02-11T14:53:46;8.53;;;5.97;;
4244;SDS011;2136;48.502;9.194;2023-02-11T14:56:17;9.03;;;6.10;;
4244;SDS011;2136;48.502;9.194;2023-02-11T14:58:45;13.60;;;6.40;;
4244;SDS011;2136;48.502;9.194;2023-02-11T15:01:26;10.83;;;8.10;;
4244;SDS011;2136;48.502;9.194;2023-02-11T15:03:56;10.07;;;7.43;;
4244;SDS011;2136;48.502;9.194;2023-02-11T15:06:25;14.53;;;8.77;;
4244;SDS011;2136;48.502;9.194;2023-02-11T15:08:57;12.40;;;7.17;;
4244;SDS011;2136;48.502;9.194;2023-02-11T15:11:27;14.20;;;8.80;;
4244;SDS011;2136;48.502;9.194;2023-02-11T15:13:56;12.10;;;7.70;;
4244;SDS011;2136;48.502;9.194;2023-02-11T15:16:26;14.80;;;8.77;;
4244;SDS011;2136;48.502;9.194;2023-02-11T15:18:54;18.40;;;10.40;;
4244;SDS011;2136;48.502;9.194;2023-02-11T15:21:25;17.83;;;10.40;;
4244;SDS011;2136;48.502;9.194;2023-02-11T15:23:57;17.90;;;10.13;;
4244;SDS011;2136;48.502;9.194;2023-02-11T15:26:25;19.40;;;9.87;;
4244;SDS011;2136;48.502;9.194;2023-02-11T15:28:53;18.77;;;10.47;;
4244;SDS011;2136;48.502;9.194;2023-02-11T15:31:21;16.60;;;11.53;;
4244;SDS011;2136;48.502;9.194;2023-02-11T15:33:49;18.03;;;11.83;;
4244;SDS011;2136;48.502;9.194;2023-02-11T15:36:17;18.87;;;13.57;;
4244;SDS011;2136;48.502;9.194;2023-02-11T15:38:45;18.00;;;12.83;;
4244;SDS011;2136;48.502;9.194;2023-02-11T15:41:42;24.60;;;14.40;;